Time;durP1;ratioP1;P1;durP2;ratioP2;P2;SDS_P1;SDS_P2;PMS_P1;PMS_P2;Temp;Humidity;BMP_temperature;BMP_pressure;BME280_temperature;BME280_humidity;BME280_pressure;Samples;Min_cycle;Max_cycle;Signal;HPM_P1;HPM_P2
2021/06/06 00:01:48;;;;;;;9.00;5.07;;;23.50;54.70;;;;;;6233458;27;80522;-67
2021/06/06 00:04:49;;;;;;;6.00;4.97;;;23.50;54.40;;;;;;6231734;27;80277;-67
2021/06/06 00:07:49;;;;;;;5.90;5.30;;;23.50;54.20;;;;;;6235473;27;80752;-67
2021/06/06 00:10:50;;;;;;;5.82;4.75;;;23.50;54.10;;;;;;6226814;28;81368;-68
2021/06/06 00:13:50;;;;;;;7.20;4.95;;;23.50;54.60;;;;;;6240937;27;80700;-67
2021/06/06 00:16:51;;;;;;;6.10;4.97;;;23.50;54.40;;;;;;6232993;27;81690;-67
2021/06/06 00:19:51;;;;;;;8.52;5.43;;;23.50;54.40;;;;;;6232329;27;81341;-67
2021/06/06 00:22:52;;;;;;;6.35;5.38;;;23.50;54.30;;;;;;6235358;27;80925;-67
2021/06/06 00:25:52;;;;;;;6.70;5.30;;;23.50;54.10;;;;;;6231515;27;81695;-67
2021/06/06 00:28:53;;;;;;;6.00;5.13;;;23.50;54.10;;;;;;6231954;27;80715;-67
2021/06/06 00:31:55;;;;;;;5.80;4.65;;;23.50;54.00;;;;;;6233748;27;82849;-67
2021/06/06 00:34:56;;;;;;;5.70;5.10;;;23.50;54.00;;;;;;6234277;27;83084;-67
2021/06/06 00:37:57;;;;;;;7.00;4.90;;;23.50;54.50;;;;;;6230717;27;80796;-67
2021/06/06 00:40:58;;;;;;;8.88;5.57;;;23.50;54.10;;;;;;6233527;27;81391;-67
2021/06/06 00:44:00;;;;;;;5.38;4.82;;;23.50;54.30;;;;;;6233200;27;82394;-68
2021/06/06 00:47:02;;;;;;;5.72;4.78;;;23.50;54.20;;;;;;6235137;27;80520;-67
2021/06/06 00:50:07;;;;;;;7.78;5.65;;;23.50;54.30;;;;;;6232155;27;82345;-66
2021/06/06 00:53:09;;;;;;;7.07;4.78;;;23.50;54.30;;;;;;6238382;27;83382;-67
2021/06/06 00:56:11;;;;;;;5.63;5.03;;;23.50;54.20;;;;;;6235317;27;83107;-67
2021/06/06 00:59:13;;;;;;;8.32;5.13;;;23.50;54.50;;;;;;6228126;27;82893;-68
2021/06/06 01:02:14;;;;;;;6.60;5.32;;;23.50;54.10;;;;;;6233025;27;80359;-68
2021/06/06 01:05:15;;;;;;;5.75;4.55;;;23.40;53.80;;;;;;6231546;27;80713;-68
2021/06/06 01:08:16;;;;;;;5.30;4.47;;;23.50;54.20;;;;;;6235589;27;83009;-69
2021/06/06 01:11:20;;;;;;;7.30;5.13;;;23.50;54.00;;;;;;6232649;27;80297;-69
2021/06/06 01:14:22;;;;;;;6.90;5.05;;;23.50;53.70;;;;;;6232408;27;80518;-70
2021/06/06 01:17:23;;;;;;;6.72;4.90;;;23.50;53.80;;;;;;6229432;27;82082;-67
2021/06/06 01:20:24;;;;;;;6.18;4.60;;;23.50;53.40;;;;;;6230681;27;82167;-68
2021/06/06 01:23:25;;;;;;;5.85;4.97;;;23.40;53.60;;;;;;6231001;27;87115;-68
2021/06/06 01:26:26;;;;;;;5.07;4.57;;;23.50;53.70;;;;;;6228836;27;83589;-67
2021/06/06 01:29:27;;;;;;;5.78;4.70;;;23.40;53.60;;;;;;6230504;28;83290;-67
2021/06/06 01:32:31;;;;;;;5.78;4.78;;;23.40;53.90;;;;;;6232202;27;80383;-67
2021/06/06 01:35:34;;;;;;;6.55;5.13;;;23.40;53.40;;;;;;6231810;27;81617;-66
2021/06/06 01:38:35;;;;;;;6.57;4.55;;;23.40;53.90;;;;;;6233567;27;81493;-66
2021/06/06 01:41:36;;;;;;;8.73;5.35;;;23.40;53.40;;;;;;6235235;27;83606;-66
2021/06/06 01:44:40;;;;;;;5.97;4.55;;;23.40;53.40;;;;;;6228323;28;83494;-66
2021/06/06 01:47:41;;;;;;;5.30;4.60;;;23.40;53.30;;;;;;6214684;27;82756;-68
2021/06/06 01:50:44;;;;;;;5.60;4.78;;;23.40;53.40;;;;;;6235009;27;81588;-67
2021/06/06 01:53:44;;;;;;;7.07;5.40;;;23.40;53.50;;;;;;6245736;27;81714;-66
2021/06/06 01:56:45;;;;;;;6.78;4.95;;;23.40;54.00;;;;;;6236111;27;80381;-66
2021/06/06 01:59:47;;;;;;;6.45;4.93;;;23.40;53.50;;;;;;6243682;27;82757;-65
2021/06/06 02:02:48;;;;;;;6.25;4.88;;;23.40;53.40;;;;;;6230803;27;83476;-65
2021/06/06 02:05:56;;;;;;;6.00;4.93;;;23.40;53.10;;;;;;6230576;27;83212;-66
2021/06/06 02:08:56;;;;;;;7.93;5.53;;;23.40;53.30;;;;;;6235953;27;80404;-65
2021/06/06 02:12:01;;;;;;;7.45;5.20;;;23.40;53.40;;;;;;6232737;28;83303;-65
2021/06/06 02:15:08;;;;;;;7.45;5.47;;;23.40;53.60;;;;;;6231524;27;86049;-65
2021/06/06 02:18:13;;;;;;;5.68;4.80;;;23.40;53.30;;;;;;6239971;27;82607;-66
2021/06/06 02:21:13;;;;;;;7.53;5.18;;;23.40;53.30;;;;;;6237659;27;81346;-65
2021/06/06 02:24:14;;;;;;;6.60;5.30;;;23.40;53.30;;;;;;6236735;27;81923;-66
2021/06/06 02:27:19;;;;;;;6.53;5.05;;;23.40;53.50;;;;;;6234713;27;80693;-65
2021/06/06 02:30:19;;;;;;;5.68;4.70;;;23.40;53.70;;;;;;6235710;27;81641;-65
2021/06/06 02:33:25;;;;;;;6.35;5.43;;;23.40;53.30;;;;;;6235663;27;82210;-65
2021/06/06 02:36:32;;;;;;;6.93;5.20;;;23.40;53.50;;;;;;6235677;27;81778;-66
2021/06/06 02:39:33;;;;;;;7.68;5.55;;;23.40;53.40;;;;;;6230704;28;83710;-67
2021/06/06 02:42:33;;;;;;;6.88;5.28;;;23.40;54.20;;;;;;6235305;27;80565;-66
2021/06/06 02:45:37;;;;;;;7.82;5.53;;;23.40;53.60;;;;;;6232837;27;83534;-66
2021/06/06 02:48:40;;;;;;;6.93;5.10;;;23.40;53.30;;;;;;6234998;27;83327;-66
2021/06/06 02:51:43;;;;;;;6.45;5.18;;;23.40;53.20;;;;;;6233824;27;82997;-65
2021/06/06 02:54:43;;;;;;;6.43;5.30;;;23.40;53.40;;;;;;6234347;27;82828;-66
2021/06/06 02:57:52;;;;;;;6.90;5.28;;;23.40;52.90;;;;;;6234211;27;81067;-67
2021/06/06 03:00:54;;;;;;;6.15;5.30;;;23.40;53.10;;;;;;6232362;27;83697;-67
2021/06/06 03:03:58;;;;;;;6.25;5.45;;;23.40;53.00;;;;;;6229566;27;81600;-67
2021/06/06 03:07:05;;;;;;;6.05;4.95;;;23.40;53.10;;;;;;6227359;27;82508;-67
2021/06/06 03:10:07;;;;;;;7.47;4.85;;;23.30;53.00;;;;;;6235514;27;81473;-67
2021/06/06 03:13:12;;;;;;;6.45;5.30;;;23.40;52.90;;;;;;6234066;27;83141;-66
2021/06/06 03:16:14;;;;;;;5.95;5.15;;;23.30;52.80;;;;;;6232716;27;83253;-66
2021/06/06 03:19:21;;;;;;;7.13;5.43;;;23.40;53.20;;;;;;6233684;27;82885;-66
2021/06/06 03:22:23;;;;;;;6.78;5.25;;;23.40;53.10;;;;;;6233953;27;83534;-66
2021/06/06 03:25:24;;;;;;;5.85;4.97;;;23.40;53.00;;;;;;6240602;27;83338;-67
2021/06/06 03:28:26;;;;;;;7.03;5.35;;;23.40;52.80;;;;;;6231622;27;82028;-66
2021/06/06 03:31:27;;;;;;;8.35;5.57;;;23.40;53.10;;;;;;6235677;27;80163;-66
2021/06/06 03:34:31;;;;;;;5.65;4.80;;;23.40;52.80;;;;;;6234965;27;82812;-67
2021/06/06 03:37:36;;;;;;;6.03;4.85;;;23.40;52.80;;;;;;6233180;27;80341;-66
2021/06/06 03:40:51;;;;;;;5.27;4.60;;;23.40;52.70;;;;;;6233385;27;80824;-66
2021/06/06 03:44:03;;;;;;;5.03;4.53;;;23.40;53.10;;;;;;6233109;27;81674;-66
2021/06/06 03:47:04;;;;;;;7.95;5.82;;;23.40;52.70;;;;;;6232992;27;83253;-66
2021/06/06 03:50:08;;;;;;;6.57;5.70;;;23.30;52.90;;;;;;6232473;27;82240;-66
2021/06/06 03:53:11;;;;;;;6.13;5.00;;;23.40;52.90;;;;;;6233976;27;81335;-67
2021/06/06 03:56:13;;;;;;;5.63;4.60;;;23.40;52.80;;;;;;6232602;27;82568;-67
2021/06/06 03:59:14;;;;;;;5.95;4.72;;;23.30;52.80;;;;;;6233438;27;82955;-66
2021/06/06 04:02:16;;;;;;;7.53;5.13;;;23.30;52.60;;;;;;6232893;27;83125;-66
2021/06/06 04:05:17;;;;;;;6.95;5.60;;;23.40;53.00;;;;;;6232479;27;82341;-66
2021/06/06 04:08:18;;;;;;;6.55;4.90;;;23.40;52.90;;;;;;6244531;27;82397;-66
2021/06/06 04:11:24;;;;;;;6.18;4.95;;;23.40;52.50;;;;;;6232322;28;82265;-67
2021/06/06 04:14:35;;;;;;;6.80;4.70;;;23.30;52.50;;;;;;6232314;27;82941;-66
2021/06/06 04:17:37;;;;;;;5.65;5.00;;;23.30;52.40;;;;;;6225517;28;82139;-67
2021/06/06 04:20:38;;;;;;;6.35;4.97;;;23.40;52.20;;;;;;6234258;27;80825;-67
2021/06/06 04:23:39;;;;;;;5.15;4.65;;;23.30;52.50;;;;;;6231762;27;81564;-67
2021/06/06 04:26:40;;;;;;;5.82;4.95;;;23.30;52.60;;;;;;6233463;27;83020;-67
2021/06/06 04:29:41;;;;;;;5.85;4.93;;;23.30;52.60;;;;;;6232367;27;80246;-66
2021/06/06 04:32:41;;;;;;;5.15;4.65;;;23.30;52.50;;;;;;6230745;27;83384;-67
2021/06/06 04:35:42;;;;;;;5.47;4.72;;;23.30;52.30;;;;;;6232469;27;82331;-67
2021/06/06 04:38:44;;;;;;;6.32;5.10;;;23.30;52.60;;;;;;6233479;27;80955;-66
2021/06/06 04:41:45;;;;;;;6.00;4.85;;;23.30;52.70;;;;;;6231597;27;83768;-67
2021/06/06 04:44:46;;;;;;;5.75;4.93;;;23.30;52.60;;;;;;6232575;27;81687;-69
2021/06/06 04:47:46;;;;;;;5.53;4.60;;;23.40;52.80;;;;;;6233490;27;80414;-66
2021/06/06 04:50:48;;;;;;;6.03;5.05;;;23.30;52.80;;;;;;6233782;27;80414;-65
2021/06/06 04:53:50;;;;;;;6.78;4.97;;;23.40;52.90;;;;;;6233371;27;82386;-66
2021/06/06 04:56:54;;;;;;;6.10;5.28;;;23.30;53.00;;;;;;6237377;27;83614;-66
2021/06/06 05:00:01;;;;;;;7.07;4.93;;;23.40;53.20;;;;;;6231994;27;81767;-67
2021/06/06 05:03:03;;;;;;;6.00;4.70;;;23.40;53.10;;;;;;6229020;27;81802;-66
2021/06/06 05:06:06;;;;;;;8.30;4.60;;;23.40;53.80;;;;;;6231546;27;86233;-67
2021/06/06 05:09:07;;;;;;;5.82;4.53;;;23.40;53.70;;;;;;6223058;27;83019;-67
2021/06/06 05:12:08;;;;;;;9.00;4.85;;;23.40;54.30;;;;;;6230157;27;79951;-66
2021/06/06 05:15:11;;;;;;;8.30;5.30;;;23.30;54.70;;;;;;6231358;27;82770;-67
2021/06/06 05:18:12;;;;;;;6.20;5.07;;;23.40;55.00;;;;;;6229351;27;81240;-67
2021/06/06 05:21:12;;;;;;;7.43;5.35;;;23.40;56.00;;;;;;6232473;27;81392;-68
2021/06/06 05:24:16;;;;;;;10.63;5.80;;;23.40;56.00;;;;;;6230273;27;83145;-68
2021/06/06 05:27:16;;;;;;;5.53;4.95;;;23.40;57.50;;;;;;6234851;27;81029;-63
2021/06/06 05:30:17;;;;;;;7.70;5.30;;;23.50;57.10;;;;;;6233816;27;80766;-69
2021/06/06 05:33:18;;;;;;;6.97;5.20;;;23.50;56.90;;;;;;6236801;27;83321;-66
2021/06/06 05:36:18;;;;;;;9.40;5.38;;;23.50;58.40;;;;;;6237664;27;80484;-67
2021/06/06 05:39:19;;;;;;;10.10;6.43;;;23.50;58.60;;;;;;6236790;27;80286;-67
2021/06/06 05:42:19;;;;;;;7.28;5.68;;;23.50;57.30;;;;;;6239536;27;80694;-66
2021/06/06 05:45:20;;;;;;;8.40;5.45;;;23.60;57.00;;;;;;6240392;27;80690;-66
2021/06/06 05:48:21;;;;;;;12.02;6.90;;;23.60;57.30;;;;;;6234003;27;82620;-66
2021/06/06 05:51:21;;;;;;;8.13;6.10;;;23.60;57.60;;;;;;6235527;27;81875;-65
2021/06/06 05:54:22;;;;;;;7.97;6.45;;;23.60;57.90;;;;;;6237753;27;80391;-66
2021/06/06 05:57:22;;;;;;;7.95;6.53;;;23.60;57.20;;;;;;6233768;27;80655;-66
2021/06/06 06:00:23;;;;;;;34.53;7.13;;;23.60;57.50;;;;;;6235826;27;80171;-66
2021/06/06 06:03:23;;;;;;;13.20;7.15;;;23.60;57.60;;;;;;6235225;27;81073;-66
2021/06/06 06:06:24;;;;;;;12.70;7.05;;;23.60;57.70;;;;;;6235179;27;80369;-65
2021/06/06 06:09:25;;;;;;;11.75;7.18;;;23.60;58.10;;;;;;6236637;27;82184;-66
2021/06/06 06:12:26;;;;;;;14.80;7.13;;;23.60;57.70;;;;;;6235826;27;84161;-65
2021/06/06 06:15:26;;;;;;;14.32;7.35;;;23.60;58.10;;;;;;6235099;27;80393;-65
2021/06/06 06:18:27;;;;;;;10.57;7.45;;;23.60;57.60;;;;;;6238737;27;83296;-66
2021/06/06 06:21:28;;;;;;;10.60;6.93;;;23.70;57.90;;;;;;6232746;27;80437;-66
2021/06/06 06:24:28;;;;;;;11.00;7.95;;;23.70;57.90;;;;;;6234610;27;81086;-66
2021/06/06 06:27:29;;;;;;;13.63;7.55;;;23.70;57.70;;;;;;6235461;27;80512;-66
2021/06/06 06:30:39;;;;;;;16.90;7.32;;;23.80;57.80;;;;;;6231546;27;80493;-65
2021/06/06 06:33:39;;;;;;;11.35;7.45;;;23.70;58.10;;;;;;6232455;27;80800;-65
2021/06/06 06:36:40;;;;;;;12.55;8.27;;;23.80;57.70;;;;;;6235575;27;81621;-65
2021/06/06 06:39:40;;;;;;;14.43;7.55;;;23.80;57.50;;;;;;6234150;27;82288;-65
2021/06/06 06:42:41;;;;;;;12.07;7.63;;;23.80;57.40;;;;;;6232824;27;80961;-67
2021/06/06 06:45:41;;;;;;;13.35;8.13;;;23.80;57.00;;;;;;6236336;27;81253;-67
2021/06/06 06:48:42;;;;;;;13.98;7.65;;;23.80;57.30;;;;;;6233869;27;81624;-66
2021/06/06 06:51:42;;;;;;;13.18;7.93;;;23.80;57.50;;;;;;6236833;27;80214;-66
2021/06/06 06:54:43;;;;;;;13.52;8.30;;;23.80;57.40;;;;;;6234224;27;80955;-67
2021/06/06 06:57:43;;;;;;;19.65;8.77;;;23.80;57.30;;;;;;6234211;27;80130;-66
2021/06/06 07:00:44;;;;;;;13.10;8.55;;;23.80;57.60;;;;;;6241859;27;88819;-66
2021/06/06 07:03:44;;;;;;;15.48;8.55;;;23.80;57.10;;;;;;6228924;27;80455;-66
2021/06/06 07:06:45;;;;;;;18.25;8.20;;;23.80;57.30;;;;;;6226828;27;80264;-67
2021/06/06 07:09:46;;;;;;;14.48;8.32;;;23.80;56.90;;;;;;6232299;27;80467;-65
2021/06/06 07:12:46;;;;;;;14.75;8.55;;;23.80;56.60;;;;;;6231350;27;80399;-66
2021/06/06 07:15:47;;;;;;;13.43;8.07;;;23.80;57.10;;;;;;6229657;27;80646;-66
2021/06/06 07:18:47;;;;;;;10.73;8.68;;;23.80;56.90;;;;;;6233621;28;80374;-65
2021/06/06 07:21:48;;;;;;;13.43;8.18;;;23.70;57.30;;;;;;6227814;27;80406;-66
2021/06/06 07:24:48;;;;;;;12.63;8.65;;;23.80;57.40;;;;;;6228741;27;80992;-65
2021/06/06 07:27:49;;;;;;;16.70;7.97;;;23.80;57.20;;;;;;6236136;27;81593;-65
2021/06/06 07:30:51;;;;;;;15.00;8.23;;;23.80;56.70;;;;;;6231251;27;82819;-63
2021/06/06 07:33:51;;;;;;;13.90;8.70;;;23.80;56.50;;;;;;6234665;27;80875;-66
2021/06/06 07:36:52;;;;;;;12.38;7.60;;;23.80;56.50;;;;;;6233239;27;80381;-65
2021/06/06 07:39:52;;;;;;;13.90;7.80;;;23.80;56.40;;;;;;6232367;27;82166;-63
2021/06/06 07:42:53;;;;;;;11.80;7.35;;;23.80;56.20;;;;;;6235260;27;81666;-63
2021/06/06 07:45:53;;;;;;;11.45;7.53;;;23.80;56.20;;;;;;6232218;27;80965;-66
2021/06/06 07:48:54;;;;;;;14.77;8.05;;;23.80;56.30;;;;;;6228999;27;81923;-65
2021/06/06 07:51:55;;;;;;;14.50;7.63;;;23.80;56.20;;;;;;6230474;27;83003;-64
2021/06/06 07:54:55;;;;;;;13.10;8.20;;;23.80;56.10;;;;;;6237643;27;80922;-65
2021/06/06 07:57:56;;;;;;;11.90;7.18;;;23.80;55.80;;;;;;6239386;27;81473;-65
2021/06/06 08:00:56;;;;;;;13.88;7.55;;;23.80;56.00;;;;;;6233511;27;80754;-67
2021/06/06 08:03:59;;;;;;;13.93;7.65;;;23.80;55.70;;;;;;6233835;27;80779;-66
2021/06/06 08:07:00;;;;;;;14.65;7.35;;;23.80;56.10;;;;;;6233165;27;80783;-66
2021/06/06 08:10:01;;;;;;;11.98;6.78;;;23.80;56.10;;;;;;6231005;27;80601;-65
2021/06/06 08:13:01;;;;;;;13.32;7.25;;;23.80;55.80;;;;;;6231437;27;81092;-66
2021/06/06 08:16:02;;;;;;;13.48;6.90;;;23.80;55.60;;;;;;6238356;27;81617;-67
2021/06/06 08:19:02;;;;;;;11.07;7.07;;;23.90;55.90;;;;;;6229691;28;82098;-66
2021/06/06 08:22:03;;;;;;;10.93;6.50;;;23.90;55.60;;;;;;6234596;27;80058;-66
2021/06/06 08:25:04;;;;;;;11.63;7.18;;;23.90;55.80;;;;;;6235201;27;80203;-66
2021/06/06 08:28:04;;;;;;;11.77;6.97;;;23.90;55.60;;;;;;6239048;27;80958;-64
2021/06/06 08:31:05;;;;;;;11.27;6.90;;;23.90;55.60;;;;;;6233292;27;80383;-66
2021/06/06 08:34:05;;;;;;;11.45;6.70;;;23.80;55.40;;;;;;6229519;27;83059;-64
2021/06/06 08:37:07;;;;;;;13.48;7.22;;;23.80;55.60;;;;;;6231172;27;83395;-67
2021/06/06 08:40:07;;;;;;;10.32;6.63;;;23.90;55.40;;;;;;6240432;27;80306;-68
2021/06/06 08:43:08;;;;;;;10.68;7.32;;;23.90;55.20;;;;;;6231372;27;82951;-65
2021/06/06 08:46:09;;;;;;;10.60;7.05;;;23.80;55.00;;;;;;6228482;27;80544;-68
2021/06/06 08:49:09;;;;;;;15.25;7.22;;;23.90;55.10;;;;;;6229257;27;83033;-67
2021/06/06 08:52:10;;;;;;;13.43;6.72;;;23.90;55.00;;;;;;6230392;27;80886;-66
2021/06/06 08:55:11;;;;;;;10.38;6.47;;;23.90;54.90;;;;;;6225527;27;80453;-65
2021/06/06 08:58:11;;;;;;;8.73;6.57;;;23.90;54.50;;;;;;6227482;27;80734;-66
2021/06/06 09:01:12;;;;;;;11.68;6.40;;;23.90;54.60;;;;;;6229951;27;80963;-66
2021/06/06 09:04:12;;;;;;;8.75;6.45;;;23.90;54.40;;;;;;6241463;27;80632;-66
2021/06/06 09:07:13;;;;;;;9.45;5.93;;;24.00;54.30;;;;;;6235157;27;80861;-66
2021/06/06 09:10:13;;;;;;;9.48;6.97;;;23.90;54.00;;;;;;6240740;27;80601;-66
2021/06/06 09:13:14;;;;;;;12.13;6.00;;;23.90;53.70;;;;;;6235515;27;81401;-66
2021/06/06 09:16:14;;;;;;;8.77;5.63;;;23.90;53.70;;;;;;6229536;27;81507;-67
2021/06/06 09:19:15;;;;;;;9.13;5.93;;;23.90;53.50;;;;;;6235768;27;80423;-66
2021/06/06 09:22:15;;;;;;;9.80;6.82;;;23.90;53.60;;;;;;6237835;27;80617;-67
2021/06/06 09:25:16;;;;;;;7.90;5.78;;;24.00;53.70;;;;;;6231904;27;80193;-67
2021/06/06 09:28:17;;;;;;;7.72;5.68;;;24.00;53.40;;;;;;6235620;27;83677;-67
2021/06/06 09:31:17;;;;;;;9.57;5.75;;;23.90;53.30;;;;;;6236331;27;82000;-66
2021/06/06 09:34:18;;;;;;;12.10;6.28;;;24.00;53.20;;;;;;6235311;27;82586;-67
2021/06/06 09:37:18;;;;;;;7.07;5.22;;;24.00;52.90;;;;;;6234021;27;80816;-67
2021/06/06 09:40:19;;;;;;;12.50;6.00;;;23.90;52.60;;;;;;6241421;27;82951;-66
2021/06/06 09:43:19;;;;;;;7.28;5.43;;;24.00;52.70;;;;;;6231840;27;82834;-65
2021/06/06 09:46:20;;;;;;;6.75;5.85;;;23.90;53.20;;;;;;6242417;27;81156;-65
2021/06/06 09:49:20;;;;;;;7.85;5.88;;;24.00;53.40;;;;;;6234194;27;82199;-66
2021/06/06 09:52:21;;;;;;;7.38;5.93;;;24.00;53.10;;;;;;6234280;27;80314;-66
2021/06/06 09:55:21;;;;;;;9.07;6.80;;;24.00;53.40;;;;;;6236894;27;80385;-66
2021/06/06 09:58:22;;;;;;;9.68;6.55;;;23.90;54.30;;;;;;6232555;27;80630;-65
2021/06/06 10:01:23;;;;;;;8.02;5.88;;;24.00;53.60;;;;;;6236047;27;81857;-66
2021/06/06 10:04:24;;;;;;;10.68;7.80;;;24.00;53.50;;;;;;6234243;27;81727;-65
2021/06/06 10:07:24;;;;;;;8.73;6.45;;;24.00;56.10;;;;;;6233785;27;81047;-65
2021/06/06 10:10:25;;;;;;;24.85;19.00;;;24.00;54.90;;;;;;6235989;27;80301;-65
2021/06/06 10:13:25;;;;;;;17.30;10.82;;;24.10;57.50;;;;;;6235494;27;82713;-66
2021/06/06 10:16:26;;;;;;;20.60;11.68;;;24.00;55.80;;;;;;6230446;27;83069;-66
2021/06/06 10:19:26;;;;;;;15.73;12.20;;;24.10;56.00;;;;;;6234118;27;84337;-65
2021/06/06 10:22:27;;;;;;;15.73;11.35;;;24.10;55.40;;;;;;6233992;27;83256;-65
2021/06/06 10:25:27;;;;;;;26.00;19.80;;;24.20;55.00;;;;;;6230379;27;83051;-67
2021/06/06 10:28:28;;;;;;;31.33;24.25;;;24.20;55.10;;;;;;6233699;28;83157;-65
2021/06/06 10:31:29;;;;;;;29.95;25.45;;;24.20;55.30;;;;;;6230016;27;84043;-65
2021/06/06 10:34:29;;;;;;;53.95;44.10;;;24.20;55.00;;;;;;6231596;27;83771;-65
2021/06/06 10:37:30;;;;;;;52.92;44.63;;;24.20;57.20;;;;;;6232434;27;83120;-65
2021/06/06 10:40:31;;;;;;;48.45;37.20;;;24.20;56.70;;;;;;6239753;27;84823;-65
2021/06/06 10:43:31;;;;;;;60.92;50.03;;;24.20;55.40;;;;;;6230126;27;84153;-65
2021/06/06 10:46:32;;;;;;;53.60;45.05;;;24.20;57.20;;;;;;6227726;27;84253;-66
2021/06/06 10:49:35;;;;;;;48.28;40.53;;;24.20;57.00;;;;;;6227531;27;83281;-66
2021/06/06 10:52:38;;;;;;;38.97;34.15;;;24.20;55.80;;;;;;6227706;27;82843;-66
2021/06/06 10:55:38;;;;;;;40.95;35.03;;;24.30;54.70;;;;;;6229361;27;84023;-66
2021/06/06 10:58:39;;;;;;;38.47;33.03;;;24.30;54.50;;;;;;6227392;27;83181;-67
2021/06/06 11:01:39;;;;;;;36.15;30.70;;;24.30;54.80;;;;;;6229443;27;84795;-65
2021/06/06 11:04:40;;;;;;;30.55;26.25;;;24.30;54.50;;;;;;6230788;27;82995;-65
2021/06/06 11:07:40;;;;;;;33.58;24.48;;;24.30;54.20;;;;;;6231029;27;83163;-65
2021/06/06 11:10:41;;;;;;;31.38;24.55;;;24.40;53.90;;;;;;6232579;27;82891;-65
2021/06/06 11:13:41;;;;;;;27.67;20.95;;;24.40;52.70;;;;;;6231629;27;83389;-67
2021/06/06 11:16:42;;;;;;;23.70;19.50;;;24.40;53.20;;;;;;6230921;27;83159;-65
2021/06/06 11:19:42;;;;;;;20.30;16.02;;;24.30;53.00;;;;;;6228690;27;83127;-66
2021/06/06 11:22:43;;;;;;;17.40;14.80;;;24.30;52.70;;;;;;6228152;27;83025;-66
2021/06/06 11:25:44;;;;;;;18.40;13.95;;;24.40;51.60;;;;;;6228279;27;83417;-67
2021/06/06 11:28:45;;;;;;;21.25;13.02;;;24.40;52.00;;;;;;6224221;27;83084;-67
2021/06/06 11:31:45;;;;;;;20.55;11.77;;;24.40;51.80;;;;;;6224170;27;84001;-66
2021/06/06 11:34:46;;;;;;;13.43;10.32;;;24.40;50.30;;;;;;6234160;27;82887;-66
2021/06/06 11:37:46;;;;;;;17.20;11.02;;;24.40;50.40;;;;;;6233975;27;83580;-64
2021/06/06 11:40:47;;;;;;;12.05;9.15;;;24.40;51.40;;;;;;6228265;27;83136;-65
2021/06/06 11:43:52;;;;;;;19.63;11.88;;;24.40;49.70;;;;;;6233035;27;83044;-66
2021/06/06 11:46:55;;;;;;;40.50;17.13;;;24.40;50.00;;;;;;6229520;27;83423;-67
2021/06/06 11:49:55;;;;;;;38.25;20.05;;;24.40;50.00;;;;;;6229835;27;83063;-67
2021/06/06 11:52:56;;;;;;;37.13;18.83;;;24.40;50.00;;;;;;6228690;27;82999;-66
2021/06/06 11:55:56;;;;;;;41.90;17.92;;;24.30;50.30;;;;;;6230210;27;83151;-68
2021/06/06 11:58:57;;;;;;;26.75;11.98;;;24.30;50.00;;;;;;6235539;27;83009;-67
2021/06/06 12:01:57;;;;;;;12.93;7.55;;;24.30;48.70;;;;;;6228274;27;84110;-68
2021/06/06 12:04:58;;;;;;;12.15;6.35;;;24.40;47.30;;;;;;6230957;27;83895;-64
2021/06/06 12:07:58;;;;;;;10.27;6.38;;;24.30;46.40;;;;;;6230870;27;81006;-65
2021/06/06 12:10:59;;;;;;;7.93;5.35;;;24.30;45.90;;;;;;6230026;27;83767;-67
2021/06/06 12:13:59;;;;;;;8.50;4.80;;;24.30;45.80;;;;;;6229361;28;82869;-67
2021/06/06 12:17:00;;;;;;;4.50;4.00;;;24.30;44.70;;;;;;6229014;28;81256;-67
2021/06/06 12:20:00;;;;;;;5.40;4.30;;;24.30;44.00;;;;;;6233189;27;80455;-68
2021/06/06 12:23:01;;;;;;;6.93;4.22;;;24.30;44.70;;;;;;6232919;27;81651;-65
2021/06/06 12:26:01;;;;;;;4.53;4.05;;;24.30;44.40;;;;;;6232454;27;81609;-66
2021/06/06 12:29:02;;;;;;;6.25;3.78;;;24.30;44.10;;;;;;6225485;27;81116;-66
2021/06/06 12:32:02;;;;;;;4.95;4.00;;;24.30;43.70;;;;;;6230863;27;81111;-66
2021/06/06 12:35:03;;;;;;;4.28;3.40;;;24.20;43.80;;;;;;6229833;27;80382;-65
2021/06/06 12:38:03;;;;;;;4.50;3.50;;;24.20;43.90;;;;;;6227358;27;80286;-66
2021/06/06 12:41:04;;;;;;;4.57;3.85;;;24.30;42.90;;;;;;6225763;27;80664;-66
2021/06/06 12:44:04;;;;;;;4.75;3.75;;;24.40;43.20;;;;;;6227915;27;81611;-67
2021/06/06 12:47:05;;;;;;;4.85;3.70;;;24.40;44.00;;;;;;6229611;27;81793;-66
2021/06/06 12:50:05;;;;;;;7.45;3.78;;;24.40;43.90;;;;;;6244477;27;83381;-66
2021/06/06 12:53:06;;;;;;;4.13;3.53;;;24.40;44.20;;;;;;6231156;27;81665;-66
2021/06/06 12:56:06;;;;;;;10.80;3.97;;;24.40;44.10;;;;;;6230587;27;81088;-66
2021/06/06 12:59:07;;;;;;;6.93;4.95;;;24.40;43.30;;;;;;6225621;27;80556;-66
2021/06/06 13:02:08;;;;;;;5.00;3.70;;;24.40;43.90;;;;;;6226035;27;80848;-66
2021/06/06 13:05:08;;;;;;;5.38;3.55;;;24.40;44.30;;;;;;6230372;28;80710;-67
2021/06/06 13:08:09;;;;;;;5.70;3.75;;;24.40;44.00;;;;;;6227854;27;80202;-66
2021/06/06 13:11:10;;;;;;;4.57;3.85;;;24.40;44.50;;;;;;6232251;27;89915;-67
2021/06/06 13:14:10;;;;;;;9.05;4.05;;;24.40;44.70;;;;;;6226331;27;81059;-66
2021/06/06 13:17:11;;;;;;;4.60;3.60;;;24.40;43.80;;;;;;6224375;27;80809;-65
2021/06/06 13:20:12;;;;;;;15.65;4.20;;;24.40;43.50;;;;;;6226967;28;81493;-65
2021/06/06 13:23:12;;;;;;;5.72;3.65;;;24.40;43.20;;;;;;6227574;28;82080;-65
2021/06/06 13:26:13;;;;;;;5.75;3.38;;;24.40;42.80;;;;;;6230394;27;80293;-67
2021/06/06 13:29:13;;;;;;;4.82;3.55;;;24.30;41.90;;;;;;6223913;27;83296;-68
2021/06/06 13:32:14;;;;;;;4.65;3.28;;;24.30;42.10;;;;;;6230747;27;81324;-67
2021/06/06 13:35:14;;;;;;;7.45;3.50;;;24.30;41.50;;;;;;6231955;27;83606;-67
2021/06/06 13:38:15;;;;;;;6.43;3.65;;;24.40;41.30;;;;;;6229659;27;80397;-67
2021/06/06 13:41:15;;;;;;;4.55;3.22;;;24.40;42.00;;;;;;6230126;27;80426;-63
2021/06/06 13:44:17;;;;;;;8.85;3.50;;;24.40;42.50;;;;;;6234736;27;80485;-63
2021/06/06 13:47:17;;;;;;;7.13;3.03;;;24.40;42.70;;;;;;6236463;27;80499;-63
2021/06/06 13:50:18;;;;;;;4.20;3.60;;;24.40;43.40;;;;;;6240802;27;81002;-63
2021/06/06 13:53:18;;;;;;;4.07;3.25;;;24.40;43.80;;;;;;6235147;27;80273;-63
2021/06/06 13:56:19;;;;;;;5.38;3.33;;;24.50;44.20;;;;;;6232792;27;82785;-63
2021/06/06 13:59:19;;;;;;;5.40;3.58;;;24.50;44.60;;;;;;6234772;27;81593;-64
2021/06/06 14:02:20;;;;;;;6.40;3.72;;;24.50;45.10;;;;;;6236027;27;81470;-64
2021/06/06 14:05:20;;;;;;;5.45;3.22;;;24.50;45.50;;;;;;6235689;27;81802;-64
2021/06/06 14:08:21;;;;;;;7.30;3.72;;;24.50;45.50;;;;;;6235318;27;80513;-65
2021/06/06 14:11:21;;;;;;;4.72;3.47;;;24.40;46.10;;;;;;6233927;27;82909;-64
2021/06/06 14:14:22;;;;;;;6.78;3.55;;;24.40;46.00;;;;;;6232664;27;81588;-64
2021/06/06 14:17:23;;;;;;;6.90;3.72;;;24.40;46.00;;;;;;6234079;27;80244;-65
2021/06/06 14:20:23;;;;;;;6.20;3.65;;;24.40;45.70;;;;;;6238410;27;80818;-64
2021/06/06 14:23:24;;;;;;;4.20;3.47;;;24.40;46.00;;;;;;6233540;27;81532;-64
2021/06/06 14:26:24;;;;;;;5.05;3.38;;;24.50;45.90;;;;;;6232927;27;82052;-64
2021/06/06 14:29:25;;;;;;;5.43;3.40;;;24.50;46.40;;;;;;6236364;27;80058;-64
2021/06/06 14:32:25;;;;;;;4.55;3.33;;;24.50;46.50;;;;;;6235018;27;80247;-64
2021/06/06 14:35:26;;;;;;;5.85;3.60;;;24.50;46.40;;;;;;6232915;27;80350;-63
2021/06/06 14:38:26;;;;;;;6.53;3.53;;;24.50;46.50;;;;;;6238555;27;81326;-64
2021/06/06 14:41:27;;;;;;;5.03;3.38;;;24.40;46.40;;;;;;6230198;27;80908;-64
2021/06/06 14:44:27;;;;;;;5.57;3.35;;;24.40;46.60;;;;;;6236092;27;80168;-65
2021/06/06 14:47:28;;;;;;;7.28;3.60;;;24.40;47.20;;;;;;6232524;27;80231;-63
2021/06/06 14:50:29;;;;;;;5.38;3.17;;;24.40;47.30;;;;;;6232672;27;81581;-70
2021/06/06 14:53:29;;;;;;;4.70;3.38;;;24.30;46.90;;;;;;6234343;27;80645;-68
2021/06/06 14:56:31;;;;;;;6.50;3.20;;;24.40;47.00;;;;;;6230731;27;80922;-68
2021/06/06 14:59:32;;;;;;;9.45;4.10;;;24.40;46.80;;;;;;6235617;27;80584;-69
2021/06/06 15:02:32;;;;;;;5.18;3.30;;;24.40;46.90;;;;;;6241578;27;80383;-69
2021/06/06 15:05:33;;;;;;;5.28;3.25;;;24.40;46.70;;;;;;6236113;27;81033;-70
2021/06/06 15:08:33;;;;;;;6.70;3.55;;;24.40;46.50;;;;;;6235083;27;80203;-69
2021/06/06 15:11:34;;;;;;;8.95;3.92;;;24.40;46.00;;;;;;6243621;27;80705;-69
2021/06/06 15:14:34;;;;;;;5.40;3.50;;;24.40;46.10;;;;;;6234437;27;82143;-67
2021/06/06 15:17:35;;;;;;;7.18;3.70;;;24.40;46.20;;;;;;6233842;27;81549;-67
2021/06/06 15:20:35;;;;;;;10.18;5.28;;;24.40;46.40;;;;;;6236596;27;80295;-67
2021/06/06 15:23:36;;;;;;;17.55;5.90;;;24.40;46.30;;;;;;6235162;27;80461;-67
2021/06/06 15:26:39;;;;;;;15.85;7.25;;;24.40;46.40;;;;;;6235474;27;81117;-66
2021/06/06 15:29:40;;;;;;;26.45;11.43;;;24.40;46.60;;;;;;6235509;27;82931;-67
2021/06/06 15:32:40;;;;;;;15.02;8.30;;;24.40;45.90;;;;;;6232159;27;83311;-67
2021/06/06 15:35:41;;;;;;;17.58;9.05;;;24.40;45.30;;;;;;6233037;27;82885;-67
2021/06/06 15:38:43;;;;;;;23.80;12.48;;;24.40;45.40;;;;;;6232556;27;80662;-69